Cottonwood Airport test (P52)
Cottonwood, AZ
Field Elevation: 3562
Lat: 34°43.80N  Long: 112°02.10W
CTAF/Unicom Freq: 122.7000
   
    
Weather Advisories
12/22/2014 09:07 Z
Altimeter 30.08" Hg
Wind 220° @ 0 KT
Gusts --
Visibility NA
Temperature 6° C (43° F)
Dewpoint 2° C (36° F)
Relative Humidity 76%
Density Altitude --
Condensation Altitude 5,500 feet
  Wind and Runways
Indicated Runway = 14
History
 
 
More Info
All DigiWx sites map
NOAA Forecast
 
Airport IQ 5010
 
about DigiWx
 
FAA Disclaimer: The data displayed is for advisory purposes only and is not to be used for flight planning or operations. For official data, please call (not available) to hear the current automated AWOS voice message.
  METAR P52 220907Z AUTO 22000KT 06/02 A3008